Time;durP1;ratioP1;P1;durP2;ratioP2;P2;SDS_P1;SDS_P2;PMS_P1;PMS_P2;Temp;Humidity;BMP_temperature;BMP_pressure;BME280_temperature;BME280_humidity;BME280_pressure;Samples;Min_cycle;Max_cycle;Signal;HPM_P1;HPM_P2
2020/12/13 00:00:15;;;;;;;27.10;10.63;;;5.10;99.90;;;;;;5053444;28;20064;-76
2020/12/13 00:02:41;;;;;;;26.65;11.05;;;5.20;99.90;;;;;;5056021;28;20400;-76
2020/12/13 00:05:07;;;;;;;16.20;8.73;;;5.20;99.90;;;;;;5062623;28;20041;-76
2020/12/13 00:07:33;;;;;;;24.00;8.52;;;5.30;99.90;;;;;;5057244;28;20024;-77
2020/12/13 00:09:59;;;;;;;23.25;9.55;;;5.30;99.90;;;;;;5055464;28;20022;-75
2020/12/13 00:12:24;;;;;;;24.73;10.98;;;5.30;99.90;;;;;;5054696;28;20048;-75
2020/12/13 00:14:50;;;;;;;18.70;10.15;;;5.30;99.90;;;;;;5056752;28;20022;-74
2020/12/13 00:17:17;;;;;;;16.58;7.68;;;5.30;99.90;;;;;;5061917;28;20025;-77
2020/12/13 00:19:43;;;;;;;24.02;9.18;;;5.30;99.90;;;;;;5053450;28;20045;-76
2020/12/13 00:22:08;;;;;;;20.90;10.27;;;5.30;99.90;;;;;;5046779;28;20029;-75
2020/12/13 00:24:34;;;;;;;17.70;8.60;;;5.30;99.90;;;;;;5046317;28;20063;-77
2020/12/13 00:27:00;;;;;;;22.73;10.60;;;5.20;99.90;;;;;;5045482;28;20026;-76
2020/12/13 00:29:25;;;;;;;23.13;10.43;;;5.20;99.90;;;;;;5044921;28;20072;-76
2020/12/13 00:31:51;;;;;;;25.90;10.93;;;5.20;99.90;;;;;;5046465;28;20741;-76
2020/12/13 00:34:17;;;;;;;22.23;10.07;;;5.20;99.90;;;;;;5045065;28;20033;-76
2020/12/13 00:36:42;;;;;;;27.25;11.10;;;5.20;99.90;;;;;;5045610;28;20055;-74
2020/12/13 00:39:08;;;;;;;20.20;9.35;;;5.20;99.90;;;;;;5045977;28;20025;-76
2020/12/13 00:41:34;;;;;;;35.95;9.70;;;5.20;99.90;;;;;;5046337;28;20025;-77
2020/12/13 00:44:00;;;;;;;26.30;10.55;;;5.20;99.90;;;;;;5046139;28;20053;-75
2020/12/13 00:46:26;;;;;;;23.88;10.15;;;5.10;99.90;;;;;;5044709;28;20097;-76
2020/12/13 00:48:52;;;;;;;18.83;8.50;;;5.20;99.90;;;;;;5046030;28;20516;-74
2020/12/13 00:51:25;;;;;;;27.35;10.50;;;5.10;99.90;;;;;;5044628;28;20028;-75
2020/12/13 00:53:51;;;;;;;22.63;10.15;;;5.10;99.90;;;;;;5045771;28;20470;-76
2020/12/13 00:56:16;;;;;;;22.58;10.25;;;5.20;99.90;;;;;;5045661;28;20025;-75
2020/12/13 00:58:42;;;;;;;23.45;11.13;;;5.20;99.90;;;;;;5045874;28;20128;-76
2020/12/13 01:01:08;;;;;;;22.08;9.70;;;5.20;99.90;;;;;;5045739;28;20025;-75
2020/12/13 01:03:33;;;;;;;22.80;10.02;;;5.20;99.90;;;;;;5044290;28;20130;-76
2020/12/13 01:05:59;;;;;;;26.20;10.50;;;5.20;99.90;;;;;;5046136;28;20017;-75
2020/12/13 01:08:24;;;;;;;19.70;9.63;;;5.20;99.90;;;;;;5044296;28;20156;-76
2020/12/13 01:10:50;;;;;;;23.40;10.15;;;5.20;99.90;;;;;;5044243;28;20086;-75
2020/12/13 01:13:16;;;;;;;21.45;8.95;;;5.20;99.90;;;;;;5045238;28;20108;-76
2020/12/13 01:15:41;;;;;;;22.83;10.25;;;5.30;99.90;;;;;;5045650;28;20067;-75
2020/12/13 01:18:07;;;;;;;23.48;10.13;;;5.20;99.90;;;;;;5045296;28;20047;-76
2020/12/13 01:20:32;;;;;;;37.00;10.07;;;5.20;99.90;;;;;;5045678;28;20076;-75
2020/12/13 01:22:58;;;;;;;23.73;8.55;;;5.30;99.90;;;;;;5045646;28;20025;-76
2020/12/13 01:25:23;;;;;;;25.88;10.27;;;5.20;99.90;;;;;;5045274;28;20025;-76
2020/12/13 01:27:49;;;;;;;23.75;8.93;;;5.20;99.90;;;;;;5045455;28;20041;-75
2020/12/13 01:30:14;;;;;;;28.45;9.40;;;5.30;99.90;;;;;;5045020;28;20033;-75
2020/12/13 01:32:41;;;;;;;19.95;9.48;;;5.20;99.90;;;;;;5045291;28;20083;-76
2020/12/13 01:35:10;;;;;;;23.88;9.63;;;5.30;99.90;;;;;;5045320;28;20446;-76
2020/12/13 01:37:35;;;;;;;27.13;10.55;;;5.30;99.90;;;;;;5045279;28;20025;-75
2020/12/13 01:40:05;;;;;;;32.22;10.45;;;5.30;99.90;;;;;;5045317;28;20512;-76
2020/12/13 01:42:39;;;;;;;16.80;8.57;;;5.30;99.90;;;;;;5044075;28;20033;-76
2020/12/13 01:45:07;;;;;;;17.10;8.55;;;5.30;99.90;;;;;;5044891;28;20051;-78
2020/12/13 01:47:33;;;;;;;24.27;9.48;;;5.20;99.90;;;;;;5044703;28;20424;-74
2020/12/13 01:49:58;;;;;;;21.83;9.75;;;5.20;99.90;;;;;;5044410;28;20026;-75
2020/12/13 01:52:42;;;;;;;22.23;8.85;;;5.20;99.90;;;;;;5043428;28;20037;-76
2020/12/13 01:55:10;;;;;;;18.63;9.23;;;5.20;99.90;;;;;;5044959;28;20096;-75
2020/12/13 01:57:38;;;;;;;26.77;10.23;;;5.20;99.90;;;;;;5044791;28;20491;-75
2020/12/13 02:00:12;;;;;;;30.83;10.40;;;5.20;99.90;;;;;;5043118;28;20362;-77
2020/12/13 02:02:44;;;;;;;29.02;10.02;;;5.20;99.90;;;;;;5044873;28;20018;-75
2020/12/13 02:05:12;;;;;;;17.92;8.80;;;5.20;99.90;;;;;;5044342;28;20545;-76
2020/12/13 02:07:38;;;;;;;20.60;9.65;;;5.30;99.90;;;;;;5043427;28;20458;-75
2020/12/13 02:10:10;;;;;;;27.50;9.25;;;5.30;99.90;;;;;;5044903;28;20064;-75
2020/12/13 02:12:36;;;;;;;23.45;8.43;;;5.20;99.90;;;;;;5043495;28;20442;-76
2020/12/13 02:15:04;;;;;;;24.33;9.65;;;5.30;99.90;;;;;;5044482;28;20020;-76
2020/12/13 02:17:29;;;;;;;20.73;9.02;;;5.30;99.90;;;;;;5043741;28;20029;-74
2020/12/13 02:20:01;;;;;;;34.45;10.20;;;5.20;99.90;;;;;;5044660;28;20385;-76
2020/12/13 02:22:27;;;;;;;23.23;8.80;;;5.30;99.90;;;;;;5043181;28;20037;-74
2020/12/13 02:24:52;;;;;;;25.67;10.63;;;5.20;99.90;;;;;;5044476;28;20021;-74
2020/12/13 02:27:18;;;;;;;19.70;8.82;;;5.20;99.90;;;;;;5044491;28;20017;-76
2020/12/13 02:29:43;;;;;;;24.92;10.45;;;5.20;99.90;;;;;;5042824;28;20029;-74
2020/12/13 02:32:09;;;;;;;25.02;10.48;;;5.30;99.90;;;;;;5044367;28;20029;-75
2020/12/13 02:34:34;;;;;;;24.70;10.27;;;5.30;99.90;;;;;;5044575;28;20030;-75
2020/12/13 02:37:00;;;;;;;24.45;8.68;;;5.20;99.90;;;;;;5044603;28;20026;-75
2020/12/13 02:39:25;;;;;;;25.63;10.45;;;5.20;99.90;;;;;;5042986;28;20021;-74
2020/12/13 02:42:02;;;;;;;27.00;9.65;;;5.20;99.90;;;;;;5044249;28;20018;-75
2020/12/13 02:44:28;;;;;;;30.45;8.77;;;5.20;99.90;;;;;;5044369;28;20023;-74
2020/12/13 02:46:54;;;;;;;28.55;9.63;;;5.20;99.90;;;;;;5044142;28;20026;-76
2020/12/13 02:49:20;;;;;;;28.08;10.65;;;5.30;99.90;;;;;;5044154;28;20026;-75
2020/12/13 02:51:45;;;;;;;27.67;10.63;;;5.30;99.90;;;;;;5044040;28;20429;-75
2020/12/13 02:54:11;;;;;;;28.33;9.05;;;5.30;99.90;;;;;;5043993;28;20041;-76
2020/12/13 02:56:40;;;;;;;31.35;10.02;;;5.30;99.90;;;;;;5044003;28;20048;-75
2020/12/13 02:59:06;;;;;;;23.70;10.18;;;5.30;99.90;;;;;;5044116;28;20373;-75
2020/12/13 03:01:33;;;;;;;26.08;10.15;;;5.30;99.90;;;;;;5048212;28;20013;-78
2020/12/13 03:03:59;;;;;;;26.50;9.73;;;5.30;99.90;;;;;;5048170;28;20057;-75
2020/12/13 03:06:25;;;;;;;21.00;9.35;;;5.30;99.90;;;;;;5046660;28;20052;-76
2020/12/13 03:08:50;;;;;;;25.33;11.00;;;5.30;99.90;;;;;;5047975;28;20029;-74
2020/12/13 03:11:20;;;;;;;31.45;9.63;;;5.30;99.90;;;;;;5047726;28;20021;-74
2020/12/13 03:13:49;;;;;;;26.70;8.90;;;5.30;99.90;;;;;;5047729;28;20092;-75
2020/12/13 03:16:15;;;;;;;26.05;9.90;;;5.30;99.90;;;;;;5047827;28;20017;-75
2020/12/13 03:18:40;;;;;;;20.65;9.20;;;5.30;99.90;;;;;;5047688;28;20091;-75
2020/12/13 03:21:06;;;;;;;28.90;10.07;;;5.20;99.90;;;;;;5046502;28;20081;-74
2020/12/13 03:23:32;;;;;;;27.73;10.02;;;5.20;99.90;;;;;;5046499;28;20075;-76
2020/12/13 03:25:57;;;;;;;24.95;8.75;;;5.20;99.90;;;;;;5046406;28;20022;-75
2020/12/13 03:28:23;;;;;;;33.55;10.75;;;5.20;99.90;;;;;;5046357;28;20030;-74
2020/12/13 03:30:49;;;;;;;29.10;9.70;;;5.30;99.90;;;;;;5046302;28;20018;-75
2020/12/13 03:33:14;;;;;;;21.83;8.80;;;5.20;99.90;;;;;;5045794;28;20100;-75
2020/12/13 03:35:40;;;;;;;44.25;11.65;;;5.30;99.90;;;;;;5045922;28;20021;-75
2020/12/13 03:38:05;;;;;;;25.02;8.77;;;5.40;99.90;;;;;;5046073;28;20017;-76
2020/12/13 03:40:32;;;;;;;24.10;9.98;;;5.20;99.90;;;;;;5046246;28;20030;-76
2020/12/13 03:42:58;;;;;;;18.73;8.77;;;5.30;99.90;;;;;;5046098;28;20029;-75
2020/12/13 03:45:23;;;;;;;32.28;10.70;;;5.30;99.90;;;;;;5045670;28;20487;-74
2020/12/13 03:47:49;;;;;;;24.05;10.30;;;5.30;99.90;;;;;;5045659;28;20024;-75
2020/12/13 03:50:14;;;;;;;23.08;9.57;;;5.30;99.90;;;;;;5047036;28;20029;-75
2020/12/13 03:52:40;;;;;;;31.33;11.18;;;5.30;99.90;;;;;;5047065;28;20041;-75
2020/12/13 03:55:06;;;;;;;27.75;9.18;;;5.30;99.90;;;;;;5047243;28;20025;-76
2020/12/13 03:57:31;;;;;;;28.30;9.95;;;5.30;99.90;;;;;;5047389;28;20036;-75
2020/12/13 03:59:57;;;;;;;23.95;9.32;;;5.30;99.90;;;;;;5045813;28;20070;-74
2020/12/13 04:02:23;;;;;;;25.63;9.77;;;5.30;99.90;;;;;;5047021;28;20021;-75
2020/12/13 04:04:48;;;;;;;28.20;9.98;;;5.30;99.90;;;;;;5045496;28;20038;-76
2020/12/13 04:07:14;;;;;;;22.60;9.32;;;5.30;99.90;;;;;;5046863;28;20014;-74
2020/12/13 04:09:40;;;;;;;40.35;9.15;;;5.30;99.90;;;;;;5046889;28;20025;-75
2020/12/13 04:12:06;;;;;;;26.30;8.27;;;5.30;99.90;;;;;;5045700;28;20513;-75
2020/12/13 04:14:32;;;;;;;28.30;10.15;;;5.30;99.90;;;;;;5046887;28;20032;-75
2020/12/13 04:16:57;;;;;;;35.88;10.40;;;5.30;99.90;;;;;;5045532;28;20025;-74
2020/12/13 04:19:23;;;;;;;32.33;11.68;;;5.30;99.90;;;;;;5046433;28;20497;-76
2020/12/13 04:21:49;;;;;;;30.40;9.35;;;5.20;99.90;;;;;;5046853;28;20029;-76
2020/12/13 04:24:14;;;;;;;36.22;10.52;;;5.20;99.90;;;;;;5046430;28;20026;-75
2020/12/13 04:26:40;;;;;;;33.50;9.43;;;5.20;99.90;;;;;;5045117;28;20111;-76
2020/12/13 04:29:06;;;;;;;20.90;8.45;;;5.20;99.90;;;;;;5046478;28;20026;-75
2020/12/13 04:31:32;;;;;;;21.42;9.38;;;5.10;99.90;;;;;;5045064;28;20029;-76
2020/12/13 04:33:57;;;;;;;32.90;11.07;;;5.20;99.90;;;;;;5045105;28;20075;-76
2020/12/13 04:36:23;;;;;;;26.23;9.43;;;5.20;99.90;;;;;;5046426;28;20018;-75
2020/12/13 04:38:49;;;;;;;32.90;10.00;;;5.20;99.90;;;;;;5044846;28;20115;-76
2020/12/13 04:41:14;;;;;;;22.80;10.32;;;5.20;99.90;;;;;;5044785;28;20107;-76
2020/12/13 04:43:40;;;;;;;21.73;9.80;;;5.10;99.90;;;;;;5045864;28;20014;-76
2020/12/13 04:46:09;;;;;;;26.92;9.95;;;5.20;99.90;;;;;;5046473;28;20028;-75
2020/12/13 04:48:38;;;;;;;18.60;8.85;;;5.20;99.90;;;;;;5046053;28;20021;-77
2020/12/13 04:51:04;;;;;;;33.60;9.50;;;5.20;99.90;;;;;;5046075;28;20022;-78
2020/12/13 04:53:32;;;;;;;27.63;8.85;;;5.20;99.90;;;;;;5046358;28;20044;-75
2020/12/13 04:55:59;;;;;;;24.88;8.70;;;5.20;99.90;;;;;;5045472;28;20059;-76
2020/12/13 04:58:28;;;;;;;28.83;9.65;;;5.20;99.90;;;;;;5045743;28;20370;-75
2020/12/13 05:00:59;;;;;;;30.35;9.88;;;5.20;99.90;;;;;;5044477;28;20504;-75
2020/12/13 05:03:26;;;;;;;39.10;10.52;;;5.20;99.90;;;;;;5045516;28;20056;-75
2020/12/13 05:05:57;;;;;;;22.33;8.10;;;5.20;99.90;;;;;;5045914;28;20032;-75
2020/12/13 05:08:23;;;;;;;26.30;8.75;;;5.20;99.90;;;;;;5045722;28;20018;-75
2020/12/13 05:10:48;;;;;;;28.33;8.82;;;5.20;99.90;;;;;;5044305;28;20017;-75
2020/12/13 05:13:14;;;;;;;30.35;9.77;;;5.20;99.90;;;;;;5045311;28;20422;-75
2020/12/13 05:15:40;;;;;;;32.63;9.18;;;5.20;99.90;;;;;;5043857;28;20021;-74
2020/12/13 05:18:06;;;;;;;41.10;9.98;;;5.20;99.90;;;;;;5044154;28;20083;-75
2020/12/13 05:20:33;;;;;;;27.17;9.32;;;5.20;99.90;;;;;;5044239;28;20029;-76
2020/12/13 05:22:59;;;;;;;25.10;10.02;;;5.20;99.90;;;;;;5045362;28;20025;-77
2020/12/13 05:25:36;;;;;;;26.25;8.80;;;5.20;99.90;;;;;;5043980;28;20443;-75
2020/12/13 05:28:08;;;;;;;22.80;7.85;;;5.20;99.90;;;;;;5043959;28;20034;-76
2020/12/13 05:30:47;;;;;;;25.75;9.57;;;5.20;99.90;;;;;;5045245;28;20022;-75
2020/12/13 05:35:48;;;;;;;26.10;9.93;;;5.30;99.90;;;;;;5045135;28;20369;-75
2020/12/13 05:38:15;;;;;;;27.15;9.77;;;5.20;99.90;;;;;;5043681;28;20021;-76
2020/12/13 05:40:42;;;;;;;17.75;8.40;;;5.30;99.90;;;;;;5045046;28;20113;-75
2020/12/13 05:43:15;;;;;;;33.42;10.75;;;5.30;99.90;;;;;;5043610;28;20017;-75
2020/12/13 05:51:09;;;;;;;33.72;9.75;;;5.30;99.90;;;;;;5044820;28;20366;-75
2020/12/13 05:53:36;;;;;;;;;;;5.20;99.90;;;;;;5045392;28;20033;-76
2020/12/13 05:56:03;;;;;;;18.30;7.32;;;5.20;99.90;;;;;;5045159;28;19928;-76
2020/12/13 05:58:30;;;;;;;19.20;9.10;;;5.20;99.90;;;;;;5045000;28;20029;-75
2020/12/13 06:00:57;;;;;;;19.80;8.02;;;5.20;99.90;;;;;;5044691;28;20022;-77
2020/12/13 06:03:34;;;;;;;32.67;10.65;;;5.20;99.90;;;;;;5044489;28;20053;-77
2020/12/13 06:06:24;;;;;;;24.60;8.98;;;5.20;99.90;;;;;;5043659;28;20112;-75
2020/12/13 06:09:05;;;;;;;17.00;7.25;;;5.30;99.90;;;;;;5043446;28;20025;-75
2020/12/13 06:11:48;;;;;;;19.90;8.27;;;5.30;99.90;;;;;;5043577;28;20030;-75
2020/12/13 06:14:20;;;;;;;22.20;7.95;;;5.30;99.90;;;;;;5044584;28;20029;-76
2020/12/13 06:16:46;;;;;;;17.95;8.50;;;5.30;99.90;;;;;;5044666;28;20091;-75
2020/12/13 06:19:17;;;;;;;21.10;9.00;;;5.30;99.90;;;;;;5043051;28;20378;-77
2020/12/13 06:21:45;;;;;;;23.10;10.32;;;5.30;99.90;;;;;;5044692;28;20442;-76
2020/12/13 06:24:11;;;;;;;21.15;7.93;;;5.30;99.90;;;;;;5043260;28;20470;-76
2020/12/13 06:26:37;;;;;;;28.85;9.73;;;5.30;99.90;;;;;;5044591;28;20017;-77
2020/12/13 06:29:05;;;;;;;26.60;9.93;;;5.30;99.90;;;;;;5044349;28;20111;-78
2020/12/13 06:31:33;;;;;;;18.13;7.82;;;5.30;99.90;;;;;;5044643;28;20017;-75
2020/12/13 06:33:59;;;;;;;18.17;8.35;;;5.30;99.90;;;;;;5044581;28;20017;-77
2020/12/13 06:36:25;;;;;;;14.75;6.75;;;5.30;99.90;;;;;;5048202;28;20044;-78
2020/12/13 06:38:54;;;;;;;26.55;7.47;;;5.30;99.90;;;;;;5047021;28;20091;-78
2020/12/13 06:41:28;;;;;;;21.40;7.68;;;5.30;99.90;;;;;;5048329;28;20073;-76
2020/12/13 06:43:54;;;;;;;31.30;8.20;;;5.30;99.90;;;;;;5048187;28;20023;-77
2020/12/13 06:46:23;;;;;;;12.32;6.25;;;5.30;99.90;;;;;;5047116;28;20539;-77
2020/12/13 06:48:48;;;;;;;20.02;6.50;;;5.30;99.90;;;;;;5048216;28;20017;-78
2020/12/13 06:51:38;;;;;;;19.08;7.68;;;5.30;99.90;;;;;;5048024;28;20022;-76
2020/12/13 06:54:06;;;;;;;17.83;6.13;;;5.40;99.90;;;;;;5047483;28;20072;-78
2020/12/13 06:56:33;;;;;;;14.77;6.95;;;5.40;99.90;;;;;;5048233;28;20022;-80
2020/12/13 06:59:02;;;;;;;10.80;5.53;;;5.40;99.90;;;;;;5047042;28;20024;-76
2020/12/13 07:01:32;;;;;;;19.55;6.88;;;5.40;99.90;;;;;;5046728;28;20026;-76
2020/12/13 07:04:21;;;;;;;18.42;7.22;;;5.30;99.90;;;;;;5047924;28;20455;-76
2020/12/13 07:06:57;;;;;;;12.82;7.00;;;5.30;99.90;;;;;;5046627;28;20084;-77
2020/12/13 07:09:24;;;;;;;13.07;7.30;;;5.30;99.90;;;;;;5048021;28;20040;-78
2020/12/13 07:11:51;;;;;;;20.83;7.38;;;5.30;99.90;;;;;;5047862;28;20018;-75
2020/12/13 07:14:20;;;;;;;22.00;6.78;;;5.20;99.90;;;;;;5047653;28;20059;-77
2020/12/13 07:16:47;;;;;;;20.83;7.20;;;5.30;99.90;;;;;;5047725;28;20105;-78
2020/12/13 07:19:16;;;;;;;11.77;5.72;;;5.30;99.90;;;;;;5047742;28;20044;-77
2020/12/13 07:21:43;;;;;;;19.70;6.65;;;5.30;99.90;;;;;;5046494;28;20041;-78
2020/12/13 07:24:10;;;;;;;11.15;5.68;;;5.30;99.90;;;;;;5047441;28;20021;-79
2020/12/13 07:26:37;;;;;;;16.98;6.40;;;5.40;99.90;;;;;;5046457;28;20028;-79
2020/12/13 07:29:14;;;;;;;17.63;7.13;;;5.50;99.90;;;;;;5042036;28;20489;-77
2020/12/13 07:31:43;;;;;;;23.33;5.97;;;5.30;99.90;;;;;;5050524;28;20496;-78
2020/12/13 07:34:09;;;;;;;13.73;6.57;;;5.30;99.90;;;;;;5051302;28;20044;-78
2020/12/13 07:36:35;;;;;;;20.88;7.13;;;5.40;99.90;;;;;;5056055;28;20049;-78
2020/12/13 07:39:03;;;;;;;14.32;5.60;;;5.30;99.90;;;;;;5067711;28;20021;-77
2020/12/13 07:41:29;;;;;;;14.95;6.70;;;5.30;99.90;;;;;;5067501;28;20025;-78
2020/12/13 07:44:04;;;;;;;16.13;5.63;;;5.30;99.90;;;;;;5067197;28;20017;-78
2020/12/13 07:46:33;;;;;;;14.88;5.55;;;5.40;99.90;;;;;;5064570;28;20021;-77
2020/12/13 07:49:25;;;;;;;16.13;7.03;;;5.40;99.90;;;;;;5067328;28;20021;-77
2020/12/13 07:51:53;;;;;;;15.20;7.63;;;5.40;99.90;;;;;;5064643;28;20041;-77
2020/12/13 07:54:21;;;;;;;14.75;6.65;;;5.40;99.90;;;;;;5065478;28;20037;-80
2020/12/13 07:56:55;;;;;;;14.70;5.78;;;5.40;99.90;;;;;;5065779;28;20036;-77
2020/12/13 07:59:22;;;;;;;17.52;7.22;;;5.40;99.90;;;;;;5065382;28;20465;-77
2020/12/13 08:01:50;;;;;;;10.20;5.65;;;5.30;99.90;;;;;;5066717;28;20027;-77
2020/12/13 08:04:38;;;;;;;12.27;6.15;;;5.30;99.90;;;;;;5066621;28;20045;-78
2020/12/13 08:07:05;;;;;;;15.73;7.50;;;5.30;99.90;;;;;;5067038;28;20017;-79
2020/12/13 08:09:32;;;;;;;18.38;5.40;;;5.40;99.90;;;;;;5065564;28;20052;-78
2020/12/13 08:11:58;;;;;;;18.45;5.95;;;5.30;99.90;;;;;;5066858;28;20051;-79
2020/12/13 08:14:26;;;;;;;13.73;5.80;;;5.40;99.90;;;;;;5065152;28;20037;-78
2020/12/13 08:16:55;;;;;;;11.18;5.68;;;5.40;99.90;;;;;;5065146;28;20044;-79
2020/12/13 08:19:38;;;;;;;19.08;6.68;;;5.40;99.90;;;;;;5066109;28;20076;-78
2020/12/13 08:22:08;;;;;;;16.55;6.53;;;5.40;99.90;;;;;;5064986;28;20049;-80
2020/12/13 08:24:34;;;;;;;19.45;7.13;;;5.40;99.90;;;;;;5066301;28;20019;-78
2020/12/13 08:27:01;;;;;;;17.85;6.25;;;5.40;99.90;;;;;;5066378;28;20020;-78
2020/12/13 08:29:31;;;;;;;20.25;7.53;;;5.40;99.90;;;;;;5064638;28;20031;-79
2020/12/13 08:31:57;;;;;;;20.38;7.30;;;5.40;99.90;;;;;;5065130;28;20075;-78
2020/12/13 08:34:25;;;;;;;18.40;6.28;;;5.40;99.90;;;;;;5064628;28;20045;-78
2020/12/13 08:36:59;;;;;;;18.65;6.22;;;5.50;99.90;;;;;;5064844;28;20025;-78
2020/12/13 08:39:31;;;;;;;22.63;7.15;;;5.50;99.90;;;;;;5066277;28;20021;-78
2020/12/13 08:41:59;;;;;;;19.55;8.05;;;5.50;99.90;;;;;;5065977;28;20042;-78
2020/12/13 08:44:30;;;;;;;12.57;5.57;;;5.40;99.90;;;;;;5064513;28;20084;-77
2020/12/13 08:46:57;;;;;;;18.52;7.75;;;5.50;99.90;;;;;;5064078;28;20036;-78
2020/12/13 08:49:31;;;;;;;31.70;8.77;;;5.60;99.90;;;;;;5062643;28;20075;-77
2020/12/13 08:52:11;;;;;;;15.77;6.90;;;5.50;99.90;;;;;;5065013;28;20017;-77
2020/12/13 08:54:54;;;;;;;17.92;7.15;;;5.50;99.90;;;;;;5065645;28;20028;-77
2020/12/13 08:57:34;;;;;;;19.67;7.13;;;5.50;99.90;;;;;;5065014;28;20032;-78
2020/12/13 09:00:19;;;;;;;39.15;7.80;;;5.60;99.90;;;;;;5065306;28;20571;-78
2020/12/13 09:02:58;;;;;;;19.05;7.35;;;5.50;99.90;;;;;;5080599;28;20025;-77
2020/12/13 09:05:31;;;;;;;17.85;7.15;;;5.50;99.90;;;;;;5064984;28;20051;-77
2020/12/13 09:07:59;;;;;;;19.23;6.22;;;5.60;99.90;;;;;;5065788;28;20507;-77
2020/12/13 09:10:30;;;;;;;22.98;7.40;;;5.60;99.90;;;;;;5065658;28;20040;-77
2020/12/13 09:12:56;;;;;;;17.48;6.88;;;5.60;99.90;;;;;;5065575;28;20033;-77
2020/12/13 09:15:23;;;;;;;18.90;7.97;;;5.70;99.90;;;;;;5065132;28;20025;-77
2020/12/13 09:18:10;;;;;;;18.77;6.85;;;5.70;99.90;;;;;;5064110;28;20021;-78
2020/12/13 09:20:36;;;;;;;12.15;5.85;;;5.80;99.90;;;;;;5063591;28;20028;-77
2020/12/13 09:23:11;;;;;;;12.52;5.93;;;5.80;99.90;;;;;;5064149;28;20032;-78
2020/12/13 09:25:41;;;;;;;14.27;5.50;;;5.80;99.90;;;;;;5065217;28;20025;-77
2020/12/13 09:28:09;;;;;;;21.60;6.25;;;5.80;99.90;;;;;;5065420;28;20048;-78
2020/12/13 09:30:35;;;;;;;19.23;7.22;;;5.80;99.90;;;;;;5063831;28;20366;-78
2020/12/13 09:33:02;;;;;;;12.75;6.20;;;5.90;99.90;;;;;;5063878;28;20044;-77
2020/12/13 09:35:30;;;;;;;13.95;7.15;;;5.90;99.90;;;;;;5063850;28;20097;-78
2020/12/13 09:37:57;;;;;;;16.17;6.25;;;5.90;99.90;;;;;;5063644;28;20025;-77
2020/12/13 09:40:22;;;;;;;14.80;5.35;;;5.90;99.90;;;;;;5065009;28;20029;-78
2020/12/13 09:42:49;;;;;;;10.57;5.97;;;5.90;99.90;;;;;;5063638;28;20021;-77
2020/12/13 09:45:14;;;;;;;12.07;5.63;;;5.90;99.90;;;;;;5063265;28;20025;-78
2020/12/13 09:47:40;;;;;;;12.52;5.10;;;5.90;99.90;;;;;;5062395;28;20088;-77
2020/12/13 09:50:05;;;;;;;16.13;5.38;;;6.00;99.90;;;;;;5064091;28;20021;-76
2020/12/13 09:52:31;;;;;;;11.30;4.70;;;6.00;99.90;;;;;;5062750;28;20044;-76
2020/12/13 09:54:58;;;;;;;22.70;6.18;;;6.00;99.90;;;;;;5063138;28;20067;-77
2020/12/13 09:57:23;;;;;;;18.95;5.75;;;6.00;99.90;;;;;;5062863;28;20121;-77
2020/12/13 09:59:49;;;;;;;12.38;5.47;;;6.00;99.90;;;;;;5062614;28;20021;-76
2020/12/13 10:02:14;;;;;;;15.20;6.18;;;6.00;99.90;;;;;;5062500;28;20024;-76
2020/12/13 10:04:40;;;;;;;11.50;5.72;;;6.00;99.90;;;;;;5062879;28;20072;-77
2020/12/13 10:09:37;;;;;;;11.38;5.97;;;6.00;99.90;;;;;;5063702;28;20027;-77
2020/12/13 10:12:03;;;;;;;13.40;6.95;;;6.00;99.90;;;;;;5064198;28;20084;-78
2020/12/13 10:14:28;;;;;;;11.85;5.88;;;6.10;99.90;;;;;;5064267;28;20082;-77
2020/12/13 10:16:54;;;;;;;13.15;6.70;;;6.00;99.90;;;;;;5062825;28;20025;-78
2020/12/13 10:19:20;;;;;;;36.03;7.35;;;6.00;99.90;;;;;;5062726;28;20009;-79
2020/12/13 10:21:46;;;;;;;16.05;6.07;;;6.00;99.90;;;;;;5061638;28;20021;-77
2020/12/13 10:24:12;;;;;;;17.58;7.05;;;6.00;99.90;;;;;;5062543;28;20017;-79
2020/12/13 10:26:39;;;;;;;15.85;6.60;;;6.10;99.90;;;;;;5062456;28;20052;-81
2020/12/13 10:29:07;;;;;;;23.40;6.95;;;6.10;99.90;;;;;;5063090;28;20017;-80
2020/12/13 10:31:41;;;;;;;20.15;7.90;;;6.10;99.90;;;;;;5063191;28;20021;-81
2020/12/13 10:34:09;;;;;;;22.92;7.13;;;6.10;99.90;;;;;;5064236;28;20510;-80
2020/12/13 10:36:37;;;;;;;15.30;7.18;;;6.20;99.90;;;;;;5063052;28;20029;-80
2020/12/13 10:39:06;;;;;;;16.55;6.47;;;6.20;99.90;;;;;;5063012;28;20372;-79
2020/12/13 10:41:35;;;;;;;11.98;5.30;;;6.20;99.90;;;;;;5064364;28;20021;-79
2020/12/13 10:44:01;;;;;;;17.55;7.57;;;6.30;99.90;;;;;;5064470;28;20131;-79
2020/12/13 10:46:27;;;;;;;18.92;8.35;;;6.30;99.90;;;;;;5062840;28;20063;-79
2020/12/13 10:48:52;;;;;;;18.25;8.02;;;6.40;99.90;;;;;;5063923;28;20044;-79
2020/12/13 10:51:18;;;;;;;12.77;6.80;;;6.40;99.90;;;;;;5063990;28;20021;-80
2020/12/13 10:53:45;;;;;;;14.82;6.65;;;6.40;99.90;;;;;;5062823;28;20040;-79
2020/12/13 10:56:11;;;;;;;19.67;7.63;;;6.40;99.90;;;;;;5062638;28;20029;-80
2020/12/13 10:58:42;;;;;;;20.10;7.90;;;6.40;99.90;;;;;;5062729;28;20433;-80
2020/12/13 11:01:09;;;;;;;11.10;5.03;;;6.40;99.90;;;;;;5062625;28;20092;-80
2020/12/13 11:03:38;;;;;;;16.60;7.72;;;6.50;99.90;;;;;;5063654;28;20385;-80
2020/12/13 11:06:07;;;;;;;26.17;7.65;;;6.40;99.90;;;;;;5064128;28;20021;-79
2020/12/13 11:08:33;;;;;;;18.92;7.40;;;6.50;99.90;;;;;;5063046;28;20021;-80
2020/12/13 11:10:58;;;;;;;20.58;8.70;;;6.50;99.90;;;;;;5062630;28;20056;-81
2020/12/13 11:13:24;;;;;;;13.70;7.05;;;6.50;99.90;;;;;;5063579;28;20485;-79
2020/12/13 11:15:49;;;;;;;21.33;7.00;;;6.60;99.90;;;;;;5062462;28;20025;-77
2020/12/13 11:18:15;;;;;;;13.88;6.85;;;6.60;99.90;;;;;;5063748;28;20024;-78
2020/12/13 11:20:40;;;;;;;12.77;6.72;;;6.60;99.90;;;;;;5063982;28;20020;-78
2020/12/13 11:23:07;;;;;;;23.05;8.43;;;6.70;99.90;;;;;;5067463;28;20086;-80
2020/12/13 11:25:33;;;;;;;18.00;7.53;;;6.70;99.90;;;;;;5067635;28;20029;-78
2020/12/13 11:28:01;;;;;;;15.50;7.15;;;6.80;99.90;;;;;;5066164;28;20033;-81
2020/12/13 11:30:26;;;;;;;15.05;6.40;;;6.80;99.90;;;;;;5067010;28;20041;-80
2020/12/13 11:32:52;;;;;;;12.85;5.93;;;6.90;99.90;;;;;;5067198;28;20048;-79
2020/12/13 11:35:18;;;;;;;15.40;7.20;;;7.00;99.90;;;;;;5067077;28;20104;-79
2020/12/13 11:37:44;;;;;;;9.55;4.88;;;7.00;99.90;;;;;;5065943;28;20044;-80
2020/12/13 11:40:10;;;;;;;12.18;5.95;;;7.10;99.90;;;;;;5065928;28;20037;-78
2020/12/13 11:42:37;;;;;;;10.45;4.75;;;7.20;99.90;;;;;;5065710;28;20021;-78
2020/12/13 11:45:05;;;;;;;10.82;5.60;;;7.10;99.90;;;;;;5067476;28;20047;-80
2020/12/13 11:47:31;;;;;;;12.13;5.95;;;7.20;99.90;;;;;;5065723;28;20048;-79
2020/12/13 11:49:56;;;;;;;12.88;6.28;;;7.30;99.90;;;;;;5065492;28;20033;-80
2020/12/13 11:52:22;;;;;;;10.82;6.60;;;7.30;99.90;;;;;;5065381;28;20024;-79
2020/12/13 11:54:47;;;;;;;18.67;8.05;;;7.40;99.90;;;;;;5066825;28;20107;-79
2020/12/13 11:57:14;;;;;;;10.23;5.25;;;7.60;99.90;;;;;;5065398;28;20017;-79
2020/12/13 11:59:43;;;;;;;11.18;5.72;;;7.60;99.90;;;;;;5065295;28;20025;-78
2020/12/13 12:02:09;;;;;;;14.35;6.20;;;7.60;99.90;;;;;;5066614;28;20064;-81
2020/12/13 12:04:35;;;;;;;13.15;6.07;;;7.70;99.90;;;;;;5066637;28;20051;-81
2020/12/13 12:07:01;;;;;;;11.10;5.45;;;7.70;99.90;;;;;;5065143;28;20021;-78
2020/12/13 12:09:28;;;;;;;11.25;6.32;;;7.70;99.90;;;;;;5065232;28;20024;-79
2020/12/13 12:11:53;;;;;;;10.48;6.20;;;7.70;99.90;;;;;;5065223;28;20063;-77
2020/12/13 12:14:20;;;;;;;8.40;4.15;;;7.70;99.90;;;;;;5066483;28;20123;-81
2020/12/13 12:16:45;;;;;;;12.70;6.60;;;7.60;99.90;;;;;;5065312;28;20350;-79
2020/12/13 12:19:12;;;;;;;8.75;4.32;;;7.50;99.90;;;;;;5066326;28;20017;-79
2020/12/13 12:21:44;;;;;;;17.10;6.55;;;7.40;99.90;;;;;;5066454;28;20450;-79
2020/12/13 12:24:11;;;;;;;10.32;5.10;;;7.40;99.90;;;;;;5066527;28;20027;-79
2020/12/13 12:26:37;;;;;;;12.85;5.38;;;7.40;99.90;;;;;;5064900;28;20116;-81
2020/12/13 12:29:08;;;;;;;15.50;6.57;;;7.30;99.90;;;;;;5065125;28;20049;-78
2020/12/13 12:31:36;;;;;;;12.90;5.95;;;7.40;99.90;;;;;;5064935;28;20028;-80
2020/12/13 12:34:02;;;;;;;9.90;5.07;;;7.40;99.90;;;;;;5064023;28;20033;-79
2020/12/13 12:36:28;;;;;;;7.85;4.65;;;7.50;99.90;;;;;;5064469;28;20056;-81
2020/12/13 12:38:55;;;;;;;12.57;6.07;;;7.70;99.90;;;;;;5066373;28;20025;-79
2020/12/13 12:41:21;;;;;;;14.95;6.65;;;7.50;99.90;;;;;;5066219;28;20021;-81
2020/12/13 12:43:49;;;;;;;21.73;9.00;;;7.50;99.90;;;;;;5064566;28;20051;-79
2020/12/13 12:46:16;;;;;;;14.70;7.00;;;7.50;99.90;;;;;;5065846;28;20017;-79
2020/12/13 12:48:47;;;;;;;20.55;7.35;;;7.40;99.90;;;;;;5064489;28;20036;-79
2020/12/13 12:51:14;;;;;;;19.55;8.43;;;7.30;99.90;;;;;;5065846;28;20028;-78
2020/12/13 12:53:39;;;;;;;12.85;6.45;;;7.30;99.90;;;;;;5064540;28;20033;-79
2020/12/13 12:56:07;;;;;;;15.55;6.55;;;7.30;99.90;;;;;;5065700;28;20031;-80
2020/12/13 13:01:31;;;;;;;19.00;7.55;;;7.10;99.90;;;;;;5084294;28;20086;-80